Time;durP1;ratioP1;P1;durP2;ratioP2;P2;SDS_P1;SDS_P2;PMS_P1;PMS_P2;Temp;Humidity;BMP_temperature;BMP_pressure;BME280_temperature;BME280_humidity;BME280_pressure;Samples;Min_cycle;Max_cycle;Signal;HPM_P1;HPM_P2
2023/04/28 05:03:41;;;;;;;;;;;;;;;11.65;64.23;97841.44;5181495;23;19935;-65
2023/04/28 05:06:06;;;;;;;;;;;;;;;11.53;64.60;97850.28;4871853;29;19924;-64
2023/04/28 05:08:32;;;;;;;;;;;;;;;11.51;64.80;97846.94;4882241;29;19927;-64
2023/04/28 05:10:57;;;;;;;;;;;;;;;11.40;64.92;97858.28;4879216;29;19928;-65
2023/04/28 05:13:22;;;;;;;;;;;;;;;11.30;66.36;97856.47;4869291;29;19935;-65
2023/04/28 05:15:47;;;;;;;;;;;;;;;11.37;65.74;97857.69;4849752;29;19924;-65
2023/04/28 05:18:13;;;;;;;;;;;;;;;11.38;66.01;97854.09;4859120;29;19974;-65
2023/04/28 05:20:38;;;;;;;;;;;;;;;11.34;66.70;97847.41;4855817;29;19920;-65
2023/04/28 05:23:03;;;;;;;;;;;;;;;11.35;66.68;97855.16;4845591;29;19924;-64
2023/04/28 05:25:28;;;;;;;;;;;;;;;11.33;65.98;97848.38;4858006;29;19962;-64
2023/04/28 05:27:54;;;;;;;;;;;;;;;11.37;66.16;97852.44;4866569;29;19919;-65
2023/04/28 05:30:20;;;;;;;;;;;;;;;11.30;65.96;97856.47;4863927;29;19928;-66
2023/04/28 05:32:45;;;;;;;;;;;;;;;11.39;65.79;97851.38;4860969;29;19999;-66
2023/04/28 05:35:10;;;;;;;;;;;;;;;11.44;64.29;97853.63;4861256;29;19916;-65
2023/04/28 05:37:37;;;;;;;;;;;;;;;11.49;65.44;97848.84;4864753;29;19920;-65
2023/04/28 05:40:02;;;;;;;;;;;;;;;11.51;65.34;97836.44;4871381;29;19930;-66
2023/04/28 05:42:27;;;;;;;;;;;;;;;11.53;66.47;97839.78;4855259;29;19920;-65
2023/04/28 05:44:52;;;;;;;;;;;;;;;11.60;65.06;97848.84;4871472;29;19920;-65
2023/04/28 05:47:18;;;;;;;;;;;;;;;11.63;65.26;97845.13;4865856;29;19927;-66
2023/04/28 05:49:43;;;;;;;;;;;;;;;11.69;65.73;97841.19;4863673;29;19923;-66
2023/04/28 16:36:10;;;;;;;;;;;;;;;15.08;86.13;97633.41;5845961;23;20914;-64
2023/04/28 16:38:35;;;;;;;;;;;;;;;15.07;85.65;97635.22;4864274;29;19932;-62
2023/04/28 16:41:00;;;;;;;;;;;;;;;15.11;85.98;97633.13;4863109;29;20362;-62
2023/04/28 16:43:26;;;;;;;;;;;;;;;15.08;85.98;97631.59;4864232;29;19935;-62
2023/04/28 16:45:51;;;;;;;;;;;;;;;15.11;86.08;97633.13;4850322;29;19920;-63
2023/04/28 16:48:17;;;;;;;;;;;;;;;15.04;86.36;97634.69;4843306;29;19928;-62
2023/04/28 16:50:42;;;;;;;;;;;;;;;15.05;86.48;97625.78;4843914;29;19924;-63
2023/04/28 16:53:07;;;;;;;;;;;;;;;15.00;87.30;97633.28;4827382;29;19927;-64
2023/04/28 16:55:35;;;;;;;;;;;;;;;14.92;87.16;97636.69;4849823;29;20422;-62
2023/04/28 16:58:01;;;;;;;;;;;;;;;14.87;87.36;97637.13;4849929;29;20295;-62
2023/04/28 17:00:26;;;;;;;;;;;;;;;14.70;88.65;97629.97;4855632;29;19939;-63
2023/04/28 17:02:51;;;;;;;;;;;;;;;14.68;88.35;97630.09;4848546;29;19999;-61
2023/04/28 17:05:16;;;;;;;;;;;;;;;14.57;89.06;97634.75;4845654;29;19942;-62
2023/04/28 17:07:42;;;;;;;;;;;;;;;14.59;89.06;97631.00;4851166;29;19928;-63
2023/04/28 17:10:07;;;;;;;;;;;;;;;14.64;89.27;97630.53;4830296;29;19927;-63
2023/04/28 17:12:33;;;;;;;;;;;;;;;14.63;89.54;97623.63;4845456;29;20306;-63
2023/04/28 17:14:58;;;;;;;;;;;;;;;14.73;88.72;97616.50;4857630;29;20374;-62
2023/04/28 17:17:23;;;;;;;;;;;;;;;14.73;88.89;97613.84;4853507;29;20330;-62
2023/04/28 17:19:48;;;;;;;;;;;;;;;14.75;88.56;97611.88;4857400;29;19968;-63
2023/04/28 17:22:14;;;;;;;;;;;;;;;14.65;88.48;97613.72;4855857;29;19920;-63
2023/04/28 17:24:39;;;;;;;;;;;;;;;14.63;88.64;97610.41;4832457;29;19924;-63
2023/04/28 17:27:04;;;;;;;;;;;;;;;14.55;88.59;97607.66;4826626;29;20433;-64
2023/04/28 17:29:30;;;;;;;;;;;;;;;14.52;88.51;97610.56;4841335;29;20367;-63
2023/04/28 17:31:56;;;;;;;;;;;;;;;14.54;88.61;97606.00;4842134;29;19921;-63
2023/04/28 17:34:21;;;;;;;;;;;;;;;14.55;88.18;97597.09;4846255;29;19944;-62
2023/04/28 17:36:46;;;;;;;;;;;;;;;14.54;87.99;97584.88;4855672;29;20374;-63
2023/04/28 17:39:12;;;;;;;;;;;;;;;14.54;87.91;97592.81;4858454;29;19916;-64
2023/04/28 17:41:37;;;;;;;;;;;;;;;14.50;87.42;97584.34;4842739;29;20402;-63
2023/04/28 17:44:02;;;;;;;;;;;;;;;14.50;87.51;97584.34;4843023;29;19917;-64
2023/04/28 17:46:27;;;;;;;;;;;;;;;14.45;87.31;97597.94;4825725;29;19927;-61
2023/04/28 17:48:53;;;;;;;;;;;;;;;14.42;86.83;97587.69;4845732;29;19927;-63
2023/04/28 17:51:18;;;;;;;;;;;;;;;14.37;86.50;97594.34;4841893;29;19962;-62
2023/04/28 17:53:47;;;;;;;;;;;;;;;14.38;86.43;97601.28;4840172;29;19956;-63
2023/04/28 17:56:13;;;;;;;;;;;;;;;14.30;86.39;97615.19;4841540;29;19931;-63
2023/04/28 17:58:38;;;;;;;;;;;;;;;14.26;86.34;97608.53;4840102;29;20011;-62
2023/04/28 18:01:04;;;;;;;;;;;;;;;14.21;86.01;97605.50;4845703;29;19920;-64
2023/04/28 18:03:29;;;;;;;;;;;;;;;14.18;86.00;97605.81;4839586;29;19927;-64
2023/04/28 18:05:54;;;;;;;;;;;;;;;14.20;85.70;97593.28;4852509;29;19967;-62
2023/04/28 18:08:20;;;;;;;;;;;;;;;14.14;86.81;97599.97;4847407;29;19921;-62
2023/04/28 18:10:45;;;;;;;;;;;;;;;14.08;86.54;97608.47;4850909;29;20039;-63
2023/04/28 18:13:10;;;;;;;;;;;;;;;14.01;86.56;97621.38;4843156;29;19972;-65
2023/04/28 18:15:36;;;;;;;;;;;;;;;14.13;84.54;97623.84;4843401;29;19925;-64
2023/04/28 18:18:01;;;;;;;;;;;;;;;14.05;86.02;97626.38;4850602;29;19984;-64
2023/04/28 18:20:26;;;;;;;;;;;;;;;13.95;86.44;97629.84;4844789;29;19920;-63
2023/04/28 18:22:51;;;;;;;;;;;;;;;13.87;86.86;97627.06;4846927;29;19924;-63
2023/04/28 18:25:17;;;;;;;;;;;;;;;13.80;87.14;97633.03;4857130;29;19951;-62
2023/04/28 18:27:43;;;;;;;;;;;;;;;13.71;87.43;97630.25;4845574;29;19925;-63
2023/04/28 18:30:08;;;;;;;;;;;;;;;13.68;87.67;97640.25;4840905;29;20029;-64
2023/04/28 18:32:34;;;;;;;;;;;;;;;13.53;88.11;97639.81;4844484;29;19917;-63
2023/04/28 18:34:59;;;;;;;;;;;;;;;13.49;88.03;97635.81;4835763;29;19930;-63
2023/04/28 18:37:24;;;;;;;;;;;;;;;13.44;88.04;97635.38;4844305;29;19920;-64
2023/04/28 18:39:53;;;;;;;;;;;;;;;13.33;88.12;97641.59;4853810;29;20310;-63
2023/04/28 18:42:18;;;;;;;;;;;;;;;13.29;88.54;97641.03;4862570;29;19916;-63
2023/04/28 18:44:44;;;;;;;;;;;;;;;13.24;89.00;97647.66;4851172;29;19969;-63
2023/04/28 18:47:09;;;;;;;;;;;;;;;13.18;89.10;97646.41;4851846;29;19916;-64
2023/04/28 18:49:36;;;;;;;;;;;;;;;13.17;89.23;97657.88;4843958;29;20421;-62
2023/04/28 18:52:02;;;;;;;;;;;;;;;13.15;89.56;97659.00;4846008;29;19964;-63
2023/04/28 18:54:28;;;;;;;;;;;;;;;13.07;89.86;97657.88;4859986;29;19967;-63
2023/04/28 18:56:53;;;;;;;;;;;;;;;13.07;89.84;97664.91;4847527;29;19923;-62
2023/04/28 18:59:18;;;;;;;;;;;;;;;13.01;89.99;97676.00;4844013;29;19924;-63
2023/04/28 19:01:43;;;;;;;;;;;;;;;12.97;89.86;97678.06;4827427;29;19917;-63
2023/04/28 19:04:09;;;;;;;;;;;;;;;12.94;90.16;97678.34;4847296;29;19927;-63
2023/04/28 19:06:35;;;;;;;;;;;;;;;12.92;90.08;97677.63;4850875;29;20294;-64
2023/04/28 19:09:00;;;;;;;;;;;;;;;12.89;90.53;97675.25;4853283;29;19931;-64
2023/04/28 19:11:25;;;;;;;;;;;;;;;12.83;90.24;97676.63;4851765;29;20350;-62
2023/04/28 19:13:51;;;;;;;;;;;;;;;12.79;90.08;97684.91;4836947;29;19920;-64
2023/04/28 19:16:17;;;;;;;;;;;;;;;12.72;89.90;97673.22;4844397;29;19920;-63
2023/04/28 19:18:43;;;;;;;;;;;;;;;12.69;90.08;97678.75;4843686;29;19916;-64
2023/04/28 19:21:10;;;;;;;;;;;;;;;12.66;90.22;97692.16;4843702;29;19972;-63
2023/04/28 19:23:38;;;;;;;;;;;;;;;12.61;91.13;97703.09;4850499;29;20433;-63
2023/04/28 19:26:03;;;;;;;;;;;;;;;12.59;91.50;97695.34;4835659;29;19927;-63
2023/04/28 19:28:28;;;;;;;;;;;;;;;12.61;91.39;97695.19;4855052;29;19916;-63
2023/04/28 19:30:56;;;;;;;;;;;;;;;12.58;91.21;97709.44;4861734;29;19916;-63
2023/04/28 19:33:22;;;;;;;;;;;;;;;12.58;91.38;97719.97;4840492;29;20011;-64
2023/04/28 19:35:47;;;;;;;;;;;;;;;12.55;91.62;97720.22;4834406;29;20007;-64
2023/04/28 19:38:15;;;;;;;;;;;;;;;12.55;91.72;97724.66;4841611;29;19947;-64
2023/04/28 19:40:40;;;;;;;;;;;;;;;12.53;91.54;97716.91;4850743;29;19920;-63
2023/04/28 19:43:06;;;;;;;;;;;;;;;12.57;91.46;97717.47;4849281;29;20368;-64
2023/04/28 19:45:33;;;;;;;;;;;;;;;12.55;92.18;97720.22;4854422;29;20078;-64
2023/04/28 19:47:58;;;;;;;;;;;;;;;12.59;91.86;97721.66;4850574;29;20003;-63
2023/04/28 19:50:24;;;;;;;;;;;;;;;12.60;91.96;97725.13;4842992;29;20003;-63
2023/04/28 19:52:49;;;;;;;;;;;;;;;12.59;92.10;97732.19;4843159;29;20003;-63
2023/04/28 19:55:17;;;;;;;;;;;;;;;12.62;92.12;97732.88;4848879;29;19956;-63
2023/04/28 19:57:43;;;;;;;;;;;;;;;12.58;92.33;97735.75;4855824;29;19991;-65
2023/04/28 20:00:08;;;;;;;;;;;;;;;12.58;91.79;97725.22;4853535;29;20603;-63
2023/04/28 20:02:34;;;;;;;;;;;;;;;12.63;92.05;97729.25;4861278;29;19923;-64
2023/04/28 20:04:59;;;;;;;;;;;;;;;12.61;92.68;97733.84;4859757;29;20367;-63
2023/04/28 20:07:24;;;;;;;;;;;;;;;12.56;92.44;97742.13;4850224;29;20406;-62
2023/04/28 20:09:54;;;;;;;;;;;;;;;12.56;92.46;97748.22;4848770;29;21411;-63
2023/04/28 20:12:20;;;;;;;;;;;;;;;12.56;92.34;97748.22;4850295;29;20011;-63
2023/04/28 20:14:45;;;;;;;;;;;;;;;12.56;92.32;97752.66;4826328;29;20007;-63
2023/04/28 20:17:11;;;;;;;;;;;;;;;12.54;92.45;97757.19;4845778;29;19920;-63
2023/04/28 20:19:36;;;;;;;;;;;;;;;12.46;93.00;97752.56;4848605;29;19923;-63
2023/04/28 20:22:03;;;;;;;;;;;;;;;12.42;92.87;97747.69;4842633;29;19916;-65
2023/04/28 20:24:28;;;;;;;;;;;;;;;12.43;92.22;97747.56;4845395;29;19920;-64
2023/04/28 20:26:53;;;;;;;;;;;;;;;12.39;93.00;97745.31;4858769;29;19988;-64
2023/04/28 20:29:18;;;;;;;;;;;;;;;12.34;93.04;97748.31;4844970;29;19962;-64
2023/04/28 20:31:44;;;;;;;;;;;;;;;12.30;92.61;97752.16;4849892;29;19955;-63
2023/04/28 20:34:09;;;;;;;;;;;;;;;12.28;92.70;97754.09;4844009;29;19926;-63
2023/04/28 20:36:34;;;;;;;;;;;;;;;12.27;93.48;97752.41;4854853;29;20430;-62
2023/04/28 20:39:00;;;;;;;;;;;;;;;12.23;93.09;97746.59;4852840;29;19995;-62
2023/04/28 20:41:25;;;;;;;;;;;;;;;12.24;92.86;97744.78;4860673;29;19916;-62
2023/04/28 20:43:53;;;;;;;;;;;;;;;12.25;93.26;97743.81;4860620;29;19920;-63
2023/04/28 20:46:18;;;;;;;;;;;;;;;12.25;93.62;97749.06;4856441;29;19939;-63
2023/04/28 20:48:44;;;;;;;;;;;;;;;12.25;93.49;97738.56;4855147;29;19920;-63
2023/04/28 20:51:09;;;;;;;;;;;;;;;12.25;93.71;97733.28;4859598;29;19916;-63
2023/04/28 20:53:35;;;;;;;;;;;;;;;12.24;93.53;97740.34;4842015;29;20378;-66
